Torre De Bel M — CSIO — position and weather

sailwx.info

Track history (hours):
 
Tides and Currents Weather Stations Pressure Air Temp Water Temp Dewpoint Dewpoint Depression Visibility Wind Speed Wind Dir Waves Ship Positions

Torre De Bel M

Last reported at 2014-Aug-23 19:19 UTC. Time now 2014-Aug-23 19:50 UTC.
Position N 38°42' W 009°14'.

Length 13 m; draft 1.1 m.

Type: Pilot. MMSI: 263671850.

Date/timePositionNaut miles runAvg speedWind from/ knotsBaromVisibWave heightAir tempDewpointWater temp
2014-Aug-23 19:19N 38°42' W 009°14'0 0.0
2014-Aug-23 03:26N 38°42' W 009°14'0 0.0
2014-Aug-23 01:33N 38°42' W 009°14'0 0.0
2014-Aug-23 00:33N 38°42' W 009°14'0 0.0
2014-Aug-22 23:32N 38°42' W 009°14'0 0.0
2014-Aug-22 22:26N 38°42' W 009°14'0 0.0
2014-Aug-21 23:18N 38°42' W 009°14'0 0.0
2014-Aug-21 22:29N 38°42' W 009°14'2 1.8
2014-Aug-21 21:33N 38°41' W 009°12'2 0.1
2014-Aug-21 06:09N 38°42' W 009°14'0 0.2
2014-Aug-21 05:33N 38°42' W 009°14'0 0.1
2014-Aug-21 04:28N 38°42' W 009°14'0 0.0
2014-Aug-21 03:30N 38°42' W 009°14'0 0.0
2014-Aug-21 01:20N 38°42' W 009°14'1 0.3
2014-Aug-20 23:33N 38°41' W 009°14'1 0.6
2014-Aug-20 22:31N 38°42' W 009°14'0 0.0
2014-Aug-20 21:18N 38°42' W 009°14'2 2.8
2014-Aug-20 20:34N 38°41' W 009°12'2 1.9
2014-Aug-20 19:28N 38°42' W 009°14'0 0.0
2014-Aug-20 06:32N 38°42' W 009°14'1 0.8
2014-Aug-20 05:33N 38°41' W 009°14'1 0.2
2014-Aug-20 02:21N 38°42' W 009°14'0 0.0
2014-Aug-20 01:32N 38°42' W 009°14'0 0.0
2014-Aug-20 00:09N 38°42' W 009°14'0 0.0
2014-Aug-19 22:33N 38°42' W 009°14'0 0.0
2014-Aug-19 21:33N 38°42' W 009°14'0 0.0
2014-Aug-19 20:32N 38°42' W 009°14'0 0.0
2014-Aug-19 19:33N 38°42' W 009°14'0 0.0
2014-Aug-19 06:33N 38°42' W 009°14'1 1.1
2014-Aug-19 05:34N 38°41' W 009°13'1 0.2
2014-Aug-19 01:14N 38°42' W 009°14'0 0.0
2014-Aug-19 00:31N 38°42' W 009°14'0 0.0
2014-Aug-18 23:33N 38°42' W 009°14'0 0.0
2014-Aug-18 22:33N 38°42' W 009°14'1 0.8
2014-Aug-18 21:33N 38°41' W 009°15'1 0.8
2014-Aug-18 20:33N 38°42' W 009°14'1 1.4
2014-Aug-18 19:33N 38°41' W 009°12'2 0.5
2014-Aug-18 16:33N 38°42' W 009°14'0 0.0
2014-Aug-18 15:29N 38°42' W 009°14'0 0.0
2014-Aug-18 14:32N 38°42' W 009°14'0 0.0
2014-Aug-18 13:29N 38°42' W 009°14'0 0.0
2014-Aug-18 12:33N 38°42' W 009°14'0 0.0
2014-Aug-18 11:34N 38°42' W 009°14'3 2.9
2014-Aug-18 10:32N 38°41' W 009°18'3 0.1
2014-Aug-17 05:22N 38°41' W 009°13'0 0.4
2014-Aug-17 04:09N 38°41' W 009°14'0 0.1
2014-Aug-16 22:32N 38°41' W 009°14'1 0.4
2014-Aug-16 20:32N 38°41' W 009°13'1 0.0
2014-Aug-16 02:11N 38°42' W 009°14'0 0.4
2014-Aug-16 01:19N 38°41' W 009°14'0 0.1
2014-Aug-15 22:33N 38°42' W 009°14'1 0.0
2014-Aug-15 04:31N 38°41' W 009°13'0 0.1
2014-Aug-15 01:33N 38°41' W 009°13'1 0.6
2014-Aug-15 00:20N 38°41' W 009°14'0 0.0
2014-Aug-14 20:19N 38°41' W 009°14'1 0.5
2014-Aug-14 19:14N 38°41' W 009°13'1 0.4
2014-Aug-14 16:33N 38°42' W 009°14'0 0.0
2014-Aug-14 15:32N 38°42' W 009°14'0 0.0
2014-Aug-14 14:33N 38°42' W 009°14'0 0.0
2014-Aug-14 13:34N 38°42' W 009°14'0 0.0
2014-Aug-14 12:33N 38°42' W 009°14'0 0.0
2014-Aug-14 11:33N 38°42' W 009°14'0 0.0
2014-Aug-14 10:34N 38°42' W 009°14'1 1.2
2014-Aug-14 09:33N 38°41' W 009°13'1 1.2
2014-Aug-14 08:33N 38°42' W 009°14'2 2.2
2014-Aug-14 07:33N 38°41' W 009°12'1 0.6
2014-Aug-14 05:31N 38°41' W 009°13'1 0.6
2014-Aug-14 03:08N 38°42' W 009°15'1 0.2
2014-Aug-13 21:33N 38°41' W 009°13'1 0.7
2014-Aug-13 20:21N 38°42' W 009°14'1 1.0
2014-Aug-13 19:30N 38°41' W 009°13'  
Track history (hours):
 
Tides and Currents Weather Stations Pressure Air Temp Water Temp Dewpoint Dewpoint Depression Visibility Wind Speed Wind Dir Waves Ship Positions

Torre De Bel M

Last reported at 2014-Aug-23 19:19 UTC. Time now 2014-Aug-23 19:50 UTC.
Position N 38°42' W 009°14'.

Length 13 m; draft 1.1 m.

Type: Pilot. MMSI: 263671850.

Date/timePositionNaut miles runAvg speedWind from/ knotsBaromVisibWave heightAir tempDewpointWater temp
2014-Aug-23 19:19N 38°42' W 009°14'0 0.0
2014-Aug-23 03:26N 38°42' W 009°14'0 0.0
2014-Aug-23 01:33N 38°42' W 009°14'0 0.0
2014-Aug-23 00:33N 38°42' W 009°14'0 0.0
2014-Aug-22 23:32N 38°42' W 009°14'0 0.0
2014-Aug-22 22:26N 38°42' W 009°14'0 0.0
2014-Aug-21 23:18N 38°42' W 009°14'0 0.0
2014-Aug-21 22:29N 38°42' W 009°14'2 1.8
2014-Aug-21 21:33N 38°41' W 009°12'2 0.1
2014-Aug-21 06:09N 38°42' W 009°14'0 0.2
2014-Aug-21 05:33N 38°42' W 009°14'0 0.1
2014-Aug-21 04:28N 38°42' W 009°14'0 0.0
2014-Aug-21 03:30N 38°42' W 009°14'0 0.0
2014-Aug-21 01:20N 38°42' W 009°14'1 0.3
2014-Aug-20 23:33N 38°41' W 009°14'1 0.6
2014-Aug-20 22:31N 38°42' W 009°14'0 0.0
2014-Aug-20 21:18N 38°42' W 009°14'2 2.8
2014-Aug-20 20:34N 38°41' W 009°12'2 1.9
2014-Aug-20 19:28N 38°42' W 009°14'0 0.0
2014-Aug-20 06:32N 38°42' W 009°14'1 0.8
2014-Aug-20 05:33N 38°41' W 009°14'1 0.2
2014-Aug-20 02:21N 38°42' W 009°14'0 0.0
2014-Aug-20 01:32N 38°42' W 009°14'0 0.0
2014-Aug-20 00:09N 38°42' W 009°14'0 0.0
2014-Aug-19 22:33N 38°42' W 009°14'0 0.0
2014-Aug-19 21:33N 38°42' W 009°14'0 0.0
2014-Aug-19 20:32N 38°42' W 009°14'0 0.0
2014-Aug-19 19:33N 38°42' W 009°14'0 0.0
2014-Aug-19 06:33N 38°42' W 009°14'1 1.1
2014-Aug-19 05:34N 38°41' W 009°13'1 0.2
2014-Aug-19 01:14N 38°42' W 009°14'0 0.0
2014-Aug-19 00:31N 38°42' W 009°14'0 0.0
2014-Aug-18 23:33N 38°42' W 009°14'0 0.0
2014-Aug-18 22:33N 38°42' W 009°14'1 0.8
2014-Aug-18 21:33N 38°41' W 009°15'1 0.8
2014-Aug-18 20:33N 38°42' W 009°14'1 1.4
2014-Aug-18 19:33N 38°41' W 009°12'2 0.5
2014-Aug-18 16:33N 38°42' W 009°14'0 0.0
2014-Aug-18 15:29N 38°42' W 009°14'0 0.0
2014-Aug-18 14:32N 38°42' W 009°14'0 0.0
2014-Aug-18 13:29N 38°42' W 009°14'0 0.0
2014-Aug-18 12:33N 38°42' W 009°14'0 0.0
2014-Aug-18 11:34N 38°42' W 009°14'3 2.9
2014-Aug-18 10:32N 38°41' W 009°18'3 0.1
2014-Aug-17 05:22N 38°41' W 009°13'0 0.4
2014-Aug-17 04:09N 38°41' W 009°14'0 0.1
2014-Aug-16 22:32N 38°41' W 009°14'1 0.4
2014-Aug-16 20:32N 38°41' W 009°13'1 0.0
2014-Aug-16 02:11N 38°42' W 009°14'0 0.4
2014-Aug-16 01:19N 38°41' W 009°14'0 0.1
2014-Aug-15 22:33N 38°42' W 009°14'1 0.0
2014-Aug-15 04:31N 38°41' W 009°13'0 0.1
2014-Aug-15 01:33N 38°41' W 009°13'1 0.6
2014-Aug-15 00:20N 38°41' W 009°14'0 0.0
2014-Aug-14 20:19N 38°41' W 009°14'1 0.5
2014-Aug-14 19:14N 38°41' W 009°13'1 0.4
2014-Aug-14 16:33N 38°42' W 009°14'0 0.0
2014-Aug-14 15:32N 38°42' W 009°14'0 0.0
2014-Aug-14 14:33N 38°42' W 009°14'0 0.0
2014-Aug-14 13:34N 38°42' W 009°14'0 0.0
2014-Aug-14 12:33N 38°42' W 009°14'0 0.0
2014-Aug-14 11:33N 38°42' W 009°14'0 0.0
2014-Aug-14 10:34N 38°42' W 009°14'1 1.2
2014-Aug-14 09:33N 38°41' W 009°13'1 1.2
2014-Aug-14 08:33N 38°42' W 009°14'2 2.2
2014-Aug-14 07:33N 38°41' W 009°12'1 0.6
2014-Aug-14 05:31N 38°41' W 009°13'1 0.6
2014-Aug-14 03:08N 38°42' W 009°15'1 0.2
2014-Aug-13 21:33N 38°41' W 009°13'1 0.7
2014-Aug-13 20:21N 38°42' W 009°14'1 1.0
2014-Aug-13 19:30N 38°41' W 009°13'  

Dump ship's entire track history